sensor_id;sensor_type;location;lat;lon;timestamp;pressure;altitude;pressure_sealevel;temperature;humidity
69796;BME280;57073;45.650;9.612;2023-03-13T00:02:28;99360.56;;;9.05;53.14
69796;BME280;57073;45.650;9.612;2023-03-13T00:07:28;99375.25;;;9.10;52.23
69796;BME280;57073;45.650;9.612;2023-03-13T00:12:29;99370.31;;;9.06;52.88
69796;BME280;57073;45.650;9.612;2023-03-13T00:17:29;99362.66;;;9.03;52.25
69796;BME280;57073;45.650;9.612;2023-03-13T00:22:29;99373.66;;;9.02;52.75
69796;BME280;57073;45.650;9.612;2023-03-13T00:27:33;99374.66;;;8.64;54.05
69796;BME280;57073;45.650;9.612;2023-03-13T00:32:39;99371.91;;;8.70;53.98
69796;BME280;57073;45.650;9.612;2023-03-13T00:37:41;99367.09;;;8.54;54.64
69796;BME280;57073;45.650;9.612;2023-03-13T00:42:41;99359.34;;;8.46;54.71
69796;BME280;57073;45.650;9.612;2023-03-13T00:47:42;99359.00;;;8.36;55.31
69796;BME280;57073;45.650;9.612;2023-03-13T00:52:42;99355.38;;;8.48;54.46
69796;BME280;57073;45.650;9.612;2023-03-13T00:57:42;99352.69;;;8.48;54.16
69796;BME280;57073;45.650;9.612;2023-03-13T01:02:43;99359.78;;;8.61;53.69
69796;BME280;57073;45.650;9.612;2023-03-13T01:07:43;99378.59;;;8.61;54.25
69796;BME280;57073;45.650;9.612;2023-03-13T01:12:43;99379.34;;;8.50;54.32
69796;BME280;57073;45.650;9.612;2023-03-13T01:17:45;99381.09;;;8.38;55.03
69796;BME280;57073;45.650;9.612;2023-03-13T01:22:45;99368.34;;;8.33;55.67
69796;BME280;57073;45.650;9.612;2023-03-13T01:27:45;99377.31;;;8.20;55.02
69796;BME280;57073;45.650;9.612;2023-03-13T01:32:46;99389.53;;;8.16;55.92
69796;BME280;57073;45.650;9.612;2023-03-13T01:37:46;99383.00;;;8.05;55.74
69796;BME280;57073;45.650;9.612;2023-03-13T01:42:50;99385.75;;;7.99;55.58
69796;BME280;57073;45.650;9.612;2023-03-13T01:47:51;99382.06;;;7.93;55.30
69796;BME280;57073;45.650;9.612;2023-03-13T01:52:51;99394.59;;;8.06;54.43
69796;BME280;57073;45.650;9.612;2023-03-13T01:57:53;99388.94;;;7.82;55.06
69796;BME280;57073;45.650;9.612;2023-03-13T02:02:56;99387.09;;;7.83;55.41
69796;BME280;57073;45.650;9.612;2023-03-13T02:08:03;99391.97;;;7.92;55.38
69796;BME280;57073;45.650;9.612;2023-03-13T02:13:06;99390.78;;;7.88;55.67
69796;BME280;57073;45.650;9.612;2023-03-13T02:18:06;99399.59;;;7.96;55.25
69796;BME280;57073;45.650;9.612;2023-03-13T02:23:18;99421.72;;;7.91;55.77
69796;BME280;57073;45.650;9.612;2023-03-13T02:28:28;99414.41;;;8.05;55.42
69796;BME280;57073;45.650;9.612;2023-03-13T02:33:38;99393.97;;;8.04;55.66
69796;BME280;57073;45.650;9.612;2023-03-13T02:44:06;99408.03;;;8.06;56.15
69796;BME280;57073;45.650;9.612;2023-03-13T02:49:19;99401.34;;;8.15;55.42
69796;BME280;57073;45.650;9.612;2023-03-13T02:54:29;99400.19;;;8.29;54.87
69796;BME280;57073;45.650;9.612;2023-03-13T02:59:31;99386.00;;;8.22;55.12
69796;BME280;57073;45.650;9.612;2023-03-13T03:04:33;99400.41;;;8.28;54.97
69796;BME280;57073;45.650;9.612;2023-03-13T03:09:34;99406.56;;;8.35;55.05
69796;BME280;57073;45.650;9.612;2023-03-13T03:14:34;99401.81;;;8.30;54.49
69796;BME280;57073;45.650;9.612;2023-03-13T03:19:35;99391.78;;;8.19;55.01
69796;BME280;57073;45.650;9.612;2023-03-13T03:24:35;99391.84;;;8.12;55.53
69796;BME280;57073;45.650;9.612;2023-03-13T03:29:36;99407.25;;;8.24;55.06
69796;BME280;57073;45.650;9.612;2023-03-13T03:34:36;99420.59;;;8.37;54.51
69796;BME280;57073;45.650;9.612;2023-03-13T03:39:36;99408.34;;;8.41;54.92
69796;BME280;57073;45.650;9.612;2023-03-13T03:44:37;99414.94;;;8.45;54.73
69796;BME280;57073;45.650;9.612;2023-03-13T03:49:37;99414.66;;;8.54;54.58
69796;BME280;57073;45.650;9.612;2023-03-13T03:54:38;99404.00;;;8.40;55.07
69796;BME280;57073;45.650;9.612;2023-03-13T03:59:38;99421.75;;;8.48;54.44
69796;BME280;57073;45.650;9.612;2023-03-13T04:04:38;99427.97;;;8.42;55.73
69796;BME280;57073;45.650;9.612;2023-03-13T04:09:39;99440.50;;;8.29;55.45
69796;BME280;57073;45.650;9.612;2023-03-13T04:14:41;99444.25;;;8.22;55.34
69796;BME280;57073;45.650;9.612;2023-03-13T04:19:42;99428.63;;;8.12;56.12
69796;BME280;57073;45.650;9.612;2023-03-13T04:24:42;99421.13;;;8.21;56.04
69796;BME280;57073;45.650;9.612;2023-03-13T04:29:43;99425.41;;;8.28;55.85
69796;BME280;57073;45.650;9.612;2023-03-13T04:34:44;99436.63;;;8.44;55.52
69796;BME280;57073;45.650;9.612;2023-03-13T04:39:44;99430.22;;;8.45;54.91
69796;BME280;57073;45.650;9.612;2023-03-13T04:44:45;99424.22;;;8.49;55.23
69796;BME280;57073;45.650;9.612;2023-03-13T04:49:45;99417.41;;;8.47;55.07
69796;BME280;57073;45.650;9.612;2023-03-13T04:54:45;99401.44;;;8.52;54.78
69796;BME280;57073;45.650;9.612;2023-03-13T04:59:45;99403.22;;;8.58;54.95
69796;BME280;57073;45.650;9.612;2023-03-13T05:04:46;99394.28;;;8.46;55.67
69796;BME280;57073;45.650;9.612;2023-03-13T05:09:46;99397.78;;;8.46;55.42
69796;BME280;57073;45.650;9.612;2023-03-13T05:14:47;99392.19;;;8.48;55.39
69796;BME280;57073;45.650;9.612;2023-03-13T05:19:49;99407.03;;;8.50;55.83
69796;BME280;57073;45.650;9.612;2023-03-13T05:24:49;99404.84;;;8.41;56.59
69796;BME280;57073;45.650;9.612;2023-03-13T05:29:50;99434.63;;;8.39;56.68
69796;BME280;57073;45.650;9.612;2023-03-13T05:34:50;99448.88;;;8.40;56.52
69796;BME280;57073;45.650;9.612;2023-03-13T05:39:50;99435.06;;;8.36;56.85
69796;BME280;57073;45.650;9.612;2023-03-13T05:44:51;99440.03;;;8.32;56.59
69796;BME280;57073;45.650;9.612;2023-03-13T05:49:51;99440.00;;;8.39;56.19
69796;BME280;57073;45.650;9.612;2023-03-13T05:54:51;99441.94;;;8.25;57.11
69796;BME280;57073;45.650;9.612;2023-03-13T05:59:53;99438.84;;;8.28;57.44
69796;BME280;57073;45.650;9.612;2023-03-13T06:04:53;99436.94;;;8.36;57.03
69796;BME280;57073;45.650;9.612;2023-03-13T06:09:54;99445.53;;;8.44;56.74
69796;BME280;57073;45.650;9.612;2023-03-13T06:14:54;99441.31;;;8.55;55.71
69796;BME280;57073;45.650;9.612;2023-03-13T06:19:54;99438.13;;;8.65;55.47
69796;BME280;57073;45.650;9.612;2023-03-13T06:24:55;99431.59;;;8.79;54.82
69796;BME280;57073;45.650;9.612;2023-03-13T06:29:56;99420.06;;;8.72;55.12
69796;BME280;57073;45.650;9.612;2023-03-13T06:34:56;99426.63;;;8.76;55.42
69796;BME280;57073;45.650;9.612;2023-03-13T06:39:56;99423.47;;;8.86;54.96
69796;BME280;57073;45.650;9.612;2023-03-13T06:44:57;99420.13;;;9.09;54.31
69796;BME280;57073;45.650;9.612;2023-03-13T06:49:57;99417.66;;;9.44;53.74
69796;BME280;57073;45.650;9.612;2023-03-13T06:54:57;99420.41;;;9.87;52.36
69796;BME280;57073;45.650;9.612;2023-03-13T06:59:58;99415.94;;;10.22;52.06
69796;BME280;57073;45.650;9.612;2023-03-13T07:04:58;99418.59;;;10.65;51.10
69796;BME280;57073;45.650;9.612;2023-03-13T07:09:59;99415.19;;;10.81;50.36
69796;BME280;57073;45.650;9.612;2023-03-13T07:14:59;99425.56;;;11.25;49.49
69796;BME280;57073;45.650;9.612;2023-03-13T07:19:59;99424.47;;;11.37;49.50
69796;BME280;57073;45.650;9.612;2023-03-13T07:25:00;99435.75;;;11.87;48.81
69796;BME280;57073;45.650;9.612;2023-03-13T07:30:00;99443.75;;;12.10;47.87
69796;BME280;57073;45.650;9.612;2023-03-13T07:35:00;99456.72;;;12.42;48.07
69796;BME280;57073;45.650;9.612;2023-03-13T07:40:03;99454.53;;;12.56;47.61
69796;BME280;57073;45.650;9.612;2023-03-13T07:45:04;99455.00;;;12.53;46.37
69796;BME280;57073;45.650;9.612;2023-03-13T07:50:05;99475.56;;;12.37;46.35
69796;BME280;57073;45.650;9.612;2023-03-13T07:55:05;99489.69;;;12.73;46.93
69796;BME280;57073;45.650;9.612;2023-03-13T08:00:06;99489.78;;;12.95;46.59
69796;BME280;57073;45.650;9.612;2023-03-13T08:05:10;99496.66;;;13.20;45.01
69796;BME280;57073;45.650;9.612;2023-03-13T08:10:11;99496.19;;;13.45;44.54
69796;BME280;57073;45.650;9.612;2023-03-13T08:15:11;99481.63;;;13.51;45.49
69796;BME280;57073;45.650;9.612;2023-03-13T08:20:11;99474.75;;;13.65;45.57
69796;BME280;57073;45.650;9.612;2023-03-13T08:25:12;99470.44;;;13.64;44.67
69796;BME280;57073;45.650;9.612;2023-03-13T08:30:13;99471.34;;;13.53;45.27
69796;BME280;57073;45.650;9.612;2023-03-13T08:35:14;99459.69;;;13.31;44.73
69796;BME280;57073;45.650;9.612;2023-03-13T08:40:14;99459.31;;;13.44;44.25
69796;BME280;57073;45.650;9.612;2023-03-13T08:45:16;99456.53;;;13.39;44.41
69796;BME280;57073;45.650;9.612;2023-03-13T08:50:16;99456.91;;;13.70;43.88
69796;BME280;57073;45.650;9.612;2023-03-13T08:55:16;99445.47;;;13.62;43.73
69796;BME280;57073;45.650;9.612;2023-03-13T09:00:17;99460.50;;;13.53;43.36
69796;BME280;57073;45.650;9.612;2023-03-13T09:05:18;99458.25;;;13.45;43.86
69796;BME280;57073;45.650;9.612;2023-03-13T09:10:18;99450.38;;;13.21;43.45
69796;BME280;57073;45.650;9.612;2023-03-13T09:15:19;99450.16;;;13.06;44.20
69796;BME280;57073;45.650;9.612;2023-03-13T09:20:20;99469.16;;;13.11;43.98
69796;BME280;57073;45.650;9.612;2023-03-13T09:25:20;99485.66;;;13.09;43.90
69796;BME280;57073;45.650;9.612;2023-03-13T09:30:21;99480.44;;;13.03;43.27
69796;BME280;57073;45.650;9.612;2023-03-13T09:35:21;99470.13;;;12.83;43.55
69796;BME280;57073;45.650;9.612;2023-03-13T09:40:23;99465.66;;;13.10;43.05
69796;BME280;57073;45.650;9.612;2023-03-13T09:45:33;99482.88;;;13.21;42.84
69796;BME280;57073;45.650;9.612;2023-03-13T09:50:39;99478.94;;;13.12;43.12
69796;BME280;57073;45.650;9.612;2023-03-13T09:55:43;99467.25;;;13.28;42.99
69796;BME280;57073;45.650;9.612;2023-03-13T10:00:56;99461.13;;;13.16;42.67
69796;BME280;57073;45.650;9.612;2023-03-13T10:06:01;99452.38;;;13.09;43.23
69796;BME280;57073;45.650;9.612;2023-03-13T10:22:01;99434.97;;;13.71;42.70
69796;BME280;57073;45.650;9.612;2023-03-13T10:27:02;99447.75;;;13.09;43.32
69796;BME280;57073;45.650;9.612;2023-03-13T10:32:04;99430.53;;;13.38;42.01
69796;BME280;57073;45.650;9.612;2023-03-13T10:37:05;99426.00;;;13.43;41.17
69796;BME280;57073;45.650;9.612;2023-03-13T10:42:17;99415.47;;;13.47;41.21
69796;BME280;57073;45.650;9.612;2023-03-13T10:47:18;99422.34;;;13.10;42.10
69796;BME280;57073;45.650;9.612;2023-03-13T10:53:06;99420.25;;;12.96;41.77
69796;BME280;57073;45.650;9.612;2023-03-13T10:57:59;99407.28;;;13.42;42.37
69796;BME280;57073;45.650;9.612;2023-03-13T11:03:14;99402.69;;;12.98;42.84
69796;BME280;57073;45.650;9.612;2023-03-13T11:08:36;99382.22;;;13.29;42.14
69796;BME280;57073;45.650;9.612;2023-03-13T11:13:41;99402.94;;;13.19;42.02
69796;BME280;57073;45.650;9.612;2023-03-13T11:24:12;99400.22;;;12.97;42.68
69796;BME280;57073;45.650;9.612;2023-03-13T11:34:23;99379.09;;;12.77;43.65
69796;BME280;57073;45.650;9.612;2023-03-13T12:01:00;99345.06;;;13.47;42.74
69796;BME280;57073;45.650;9.612;2023-03-13T12:06:03;99330.06;;;13.39;43.13
69796;BME280;57073;45.650;9.612;2023-03-13T12:16:42;99299.13;;;13.57;42.58
69796;BME280;57073;45.650;9.612;2023-03-13T12:21:51;99295.19;;;13.43;41.70
69796;BME280;57073;45.650;9.612;2023-03-13T12:27:13;99285.56;;;13.57;41.87
69796;BME280;57073;45.650;9.612;2023-03-13T12:32:35;99269.06;;;13.59;42.40
69796;BME280;57073;45.650;9.612;2023-03-13T12:37:59;99279.91;;;13.64;42.80
69796;BME280;57073;45.650;9.612;2023-03-13T12:43:08;99273.88;;;13.84;42.63
69796;BME280;57073;45.650;9.612;2023-03-13T12:59:41;99237.09;;;13.61;42.93
69796;BME280;57073;45.650;9.612;2023-03-13T13:04:41;99232.41;;;13.51;42.57
69796;BME280;57073;45.650;9.612;2023-03-13T13:25:30;99197.19;;;14.26;42.37
69796;BME280;57073;45.650;9.612;2023-03-13T13:30:31;99201.63;;;14.48;41.61
69796;BME280;57073;45.650;9.612;2023-03-13T13:35:33;99204.06;;;14.44;42.31
69796;BME280;57073;45.650;9.612;2023-03-13T13:40:34;99195.72;;;14.66;42.16
69796;BME280;57073;45.650;9.612;2023-03-13T13:45:35;99187.31;;;14.62;41.56
69796;BME280;57073;45.650;9.612;2023-03-13T13:50:36;99170.75;;;14.69;41.56
69796;BME280;57073;45.650;9.612;2023-03-13T13:55:43;99162.31;;;14.66;41.90
69796;BME280;57073;45.650;9.612;2023-03-13T14:00:47;99164.25;;;14.70;42.02
69796;BME280;57073;45.650;9.612;2023-03-13T14:06:16;99136.25;;;14.59;42.52
69796;BME280;57073;45.650;9.612;2023-03-13T14:11:35;99145.19;;;14.44;43.34
69796;BME280;57073;45.650;9.612;2023-03-13T14:16:37;99139.25;;;14.63;43.13
69796;BME280;57073;45.650;9.612;2023-03-13T14:21:37;99132.19;;;14.62;42.96
69796;BME280;57073;45.650;9.612;2023-03-13T14:26:41;99123.50;;;14.60;42.80
69796;BME280;57073;45.650;9.612;2023-03-13T14:31:49;99127.31;;;14.59;42.86
69796;BME280;57073;45.650;9.612;2023-03-13T14:36:55;99128.44;;;14.73;43.23
69796;BME280;57073;45.650;9.612;2023-03-13T14:42:02;99115.69;;;14.79;42.79
69796;BME280;57073;45.650;9.612;2023-03-13T14:47:08;99114.88;;;14.78;43.14
69796;BME280;57073;45.650;9.612;2023-03-13T14:52:22;99115.94;;;14.77;43.81
69796;BME280;57073;45.650;9.612;2023-03-13T14:57:24;99112.16;;;14.78;43.46
69796;BME280;57073;45.650;9.612;2023-03-13T15:02:28;99104.84;;;14.79;43.27
69796;BME280;57073;45.650;9.612;2023-03-13T15:07:41;99101.03;;;14.75;43.24
69796;BME280;57073;45.650;9.612;2023-03-13T15:12:47;99095.06;;;14.68;42.96
69796;BME280;57073;45.650;9.612;2023-03-13T15:17:47;99092.56;;;14.51;43.39
69796;BME280;57073;45.650;9.612;2023-03-13T15:22:48;99088.75;;;14.47;43.95
69796;BME280;57073;45.650;9.612;2023-03-13T15:27:49;99088.44;;;14.38;43.92
69796;BME280;57073;45.650;9.612;2023-03-13T15:32:49;99088.72;;;14.41;43.71
69796;BME280;57073;45.650;9.612;2023-03-13T15:37:50;99070.00;;;14.35;44.09
69796;BME280;57073;45.650;9.612;2023-03-13T15:42:52;99058.28;;;14.24;44.19
69796;BME280;57073;45.650;9.612;2023-03-13T15:47:52;99065.06;;;14.16;44.44
69796;BME280;57073;45.650;9.612;2023-03-13T15:52:53;99058.72;;;13.85;45.10
69796;BME280;57073;45.650;9.612;2023-03-13T15:57:53;99055.50;;;13.98;44.59
69796;BME280;57073;45.650;9.612;2023-03-13T16:02:54;99048.97;;;13.89;45.25
69796;BME280;57073;45.650;9.612;2023-03-13T16:07:54;99035.91;;;13.81;45.19
69796;BME280;57073;45.650;9.612;2023-03-13T16:12:55;99033.19;;;13.81;45.10
69796;BME280;57073;45.650;9.612;2023-03-13T16:17:55;99026.09;;;13.75;45.49
69796;BME280;57073;45.650;9.612;2023-03-13T16:22:56;99023.13;;;13.76;45.46
69796;BME280;57073;45.650;9.612;2023-03-13T16:27:57;99023.91;;;13.66;45.19
69796;BME280;57073;45.650;9.612;2023-03-13T16:32:58;99025.00;;;13.71;45.18
69796;BME280;57073;45.650;9.612;2023-03-13T16:37:59;99016.16;;;13.38;46.41
69796;BME280;57073;45.650;9.612;2023-03-13T16:42:59;99009.72;;;13.49;45.97
69796;BME280;57073;45.650;9.612;2023-03-13T16:48:00;99026.34;;;13.63;45.94
69796;BME280;57073;45.650;9.612;2023-03-13T16:53:00;99030.38;;;13.55;46.17
69796;BME280;57073;45.650;9.612;2023-03-13T16:58:01;99015.94;;;13.44;46.03
69796;BME280;57073;45.650;9.612;2023-03-13T17:03:01;99008.59;;;13.40;46.39
69796;BME280;57073;45.650;9.612;2023-03-13T17:08:02;99009.16;;;13.42;46.19
69796;BME280;57073;45.650;9.612;2023-03-13T17:13:02;98999.09;;;13.32;46.31
69796;BME280;57073;45.650;9.612;2023-03-13T17:18:04;98994.44;;;13.27;46.72
69796;BME280;57073;45.650;9.612;2023-03-13T17:23:04;98993.22;;;13.08;46.84
69796;BME280;57073;45.650;9.612;2023-03-13T17:28:05;99004.63;;;13.15;46.77
69796;BME280;57073;45.650;9.612;2023-03-13T17:33:05;99001.88;;;13.05;47.46
69796;BME280;57073;45.650;9.612;2023-03-13T17:38:08;99003.78;;;13.04;47.19
69796;BME280;57073;45.650;9.612;2023-03-13T17:43:09;99001.34;;;13.08;47.75
69796;BME280;57073;45.650;9.612;2023-03-13T17:48:11;99002.44;;;13.07;47.32
69796;BME280;57073;45.650;9.612;2023-03-13T17:53:12;98991.53;;;12.97;47.50
69796;BME280;57073;45.650;9.612;2023-03-13T17:58:12;98982.06;;;12.94;47.67
69796;BME280;57073;45.650;9.612;2023-03-13T18:03:13;98984.50;;;12.96;47.97
69796;BME280;57073;45.650;9.612;2023-03-13T18:08:13;98970.91;;;12.85;47.54
69796;BME280;57073;45.650;9.612;2023-03-13T18:13:13;98983.94;;;12.94;47.58
69796;BME280;57073;45.650;9.612;2023-03-13T18:18:15;98973.56;;;12.80;47.82
69796;BME280;57073;45.650;9.612;2023-03-13T18:23:16;98965.19;;;12.82;48.38
69796;BME280;57073;45.650;9.612;2023-03-13T18:28:16;98955.78;;;12.95;48.37
69796;BME280;57073;45.650;9.612;2023-03-13T18:33:16;98950.44;;;13.00;47.50
69796;BME280;57073;45.650;9.612;2023-03-13T18:38:17;98936.78;;;12.79;47.84
69796;BME280;57073;45.650;9.612;2023-03-13T18:43:18;98926.50;;;12.81;47.44
69796;BME280;57073;45.650;9.612;2023-03-13T18:48:18;98923.03;;;12.91;47.46
69796;BME280;57073;45.650;9.612;2023-03-13T18:53:19;98930.84;;;12.87;48.50
69796;BME280;57073;45.650;9.612;2023-03-13T18:58:19;98936.81;;;12.89;47.80
69796;BME280;57073;45.650;9.612;2023-03-13T19:03:19;98928.94;;;12.83;48.62
69796;BME280;57073;45.650;9.612;2023-03-13T19:08:20;98929.19;;;12.81;49.21
69796;BME280;57073;45.650;9.612;2023-03-13T19:13:21;98918.34;;;12.76;49.58
69796;BME280;57073;45.650;9.612;2023-03-13T19:18:21;98920.25;;;12.76;48.26
69796;BME280;57073;45.650;9.612;2023-03-13T19:23:22;98933.53;;;12.82;48.49
69796;BME280;57073;45.650;9.612;2023-03-13T19:28:22;98932.47;;;12.83;48.68
69796;BME280;57073;45.650;9.612;2023-03-13T19:33:22;98926.53;;;12.91;48.32
69796;BME280;57073;45.650;9.612;2023-03-13T19:38:23;98918.72;;;12.90;48.36
69796;BME280;57073;45.650;9.612;2023-03-13T19:43:23;98913.25;;;12.85;48.24
69796;BME280;57073;45.650;9.612;2023-03-13T19:48:23;98905.88;;;12.75;47.84
69796;BME280;57073;45.650;9.612;2023-03-13T19:53:24;98882.53;;;12.31;48.84
69796;BME280;57073;45.650;9.612;2023-03-13T19:58:24;98874.47;;;12.04;49.95
69796;BME280;57073;45.650;9.612;2023-03-13T20:03:24;98875.63;;;12.08;50.50
69796;BME280;57073;45.650;9.612;2023-03-13T20:08:25;98872.91;;;12.08;50.80
69796;BME280;57073;45.650;9.612;2023-03-13T20:13:25;98882.84;;;12.03;50.44
69796;BME280;57073;45.650;9.612;2023-03-13T20:18:26;98894.59;;;12.19;50.04
69796;BME280;57073;45.650;9.612;2023-03-13T20:23:27;98893.94;;;12.06;49.76
69796;BME280;57073;45.650;9.612;2023-03-13T20:28:27;98885.34;;;11.82;49.55
69796;BME280;57073;45.650;9.612;2023-03-13T20:33:28;98890.94;;;11.75;50.62
69796;BME280;57073;45.650;9.612;2023-03-13T20:38:28;98877.50;;;11.81;50.61
69796;BME280;57073;45.650;9.612;2023-03-13T20:43:29;98860.34;;;11.21;54.10
69796;BME280;57073;45.650;9.612;2023-03-13T20:48:29;98867.50;;;11.32;56.94
69796;BME280;57073;45.650;9.612;2023-03-13T20:53:30;98858.03;;;11.29;56.57
69796;BME280;57073;45.650;9.612;2023-03-13T20:58:30;98846.75;;;10.71;61.23
69796;BME280;57073;45.650;9.612;2023-03-13T21:03:31;98850.81;;;10.35;63.24
69796;BME280;57073;45.650;9.612;2023-03-13T21:08:34;98849.16;;;10.90;61.16
69796;BME280;57073;45.650;9.612;2023-03-13T21:13:34;98829.34;;;10.79;62.53
69796;BME280;57073;45.650;9.612;2023-03-13T21:18:35;98831.06;;;10.85;60.84
69796;BME280;57073;45.650;9.612;2023-03-13T21:23:36;98825.03;;;10.78;62.41
69796;BME280;57073;45.650;9.612;2023-03-13T21:28:38;98818.28;;;10.80;63.50
69796;BME280;57073;45.650;9.612;2023-03-13T21:33:39;98793.09;;;10.31;65.35
69796;BME280;57073;45.650;9.612;2023-03-13T21:38:40;98784.25;;;10.01;66.83
69796;BME280;57073;45.650;9.612;2023-03-13T21:43:41;98762.66;;;9.96;67.09
69796;BME280;57073;45.650;9.612;2023-03-13T21:48:43;98780.81;;;9.72;68.46
69796;BME280;57073;45.650;9.612;2023-03-13T21:53:44;98735.28;;;9.54;68.87
69796;BME280;57073;45.650;9.612;2023-03-13T21:58:44;98729.38;;;9.23;70.23
69796;BME280;57073;45.650;9.612;2023-03-13T22:03:45;98719.94;;;8.80;73.07
69796;BME280;57073;45.650;9.612;2023-03-13T22:08:47;98731.50;;;8.92;73.62
69796;BME280;57073;45.650;9.612;2023-03-13T22:13:47;98700.38;;;8.56;75.06
69796;BME280;57073;45.650;9.612;2023-03-13T22:18:47;98704.38;;;8.53;75.68
69796;BME280;57073;45.650;9.612;2023-03-13T22:23:48;98685.91;;;8.85;74.78
69796;BME280;57073;45.650;9.612;2023-03-13T22:28:48;98690.88;;;8.65;75.88
69796;BME280;57073;45.650;9.612;2023-03-13T22:33:48;98670.31;;;8.70;74.77
69796;BME280;57073;45.650;9.612;2023-03-13T22:38:49;98675.19;;;8.45;76.78
69796;BME280;57073;45.650;9.612;2023-03-13T22:43:49;98634.25;;;8.55;75.98
69796;BME280;57073;45.650;9.612;2023-03-13T22:48:50;98633.00;;;8.05;79.45
69796;BME280;57073;45.650;9.612;2023-03-13T22:53:50;98615.06;;;7.70;81.31
69796;BME280;57073;45.650;9.612;2023-03-13T22:58:50;98617.44;;;8.19;79.69
69796;BME280;57073;45.650;9.612;2023-03-13T23:03:51;98602.91;;;7.91;80.74
69796;BME280;57073;45.650;9.612;2023-03-13T23:08:51;98601.78;;;7.75;81.85
69796;BME280;57073;45.650;9.612;2023-03-13T23:13:52;98581.81;;;8.23;78.72
69796;BME280;57073;45.650;9.612;2023-03-13T23:18:52;98564.44;;;8.43;78.17
69796;BME280;57073;45.650;9.612;2023-03-13T23:23:53;98540.41;;;8.07;78.87
69796;BME280;57073;45.650;9.612;2023-03-13T23:28:53;98522.00;;;8.57;76.05
69796;BME280;57073;45.650;9.612;2023-03-13T23:33:54;98530.81;;;8.40;76.18
69796;BME280;57073;45.650;9.612;2023-03-13T23:38:54;98516.91;;;8.15;77.16
69796;BME280;57073;45.650;9.612;2023-03-13T23:43:57;98485.63;;;7.91;78.97
69796;BME280;57073;45.650;9.612;2023-03-13T23:48:59;98504.25;;;8.27;77.58
69796;BME280;57073;45.650;9.612;2023-03-13T23:54:00;98485.78;;;8.30;77.72
69796;BME280;57073;45.650;9.612;2023-03-13T23:59:00;98460.84;;;8.18;77.41
